Time;durP1;ratioP1;P1;durP2;ratioP2;P2;SDS_P1;SDS_P2;PMS_P1;PMS_P2;Temp;Humidity;BMP_temperature;BMP_pressure;BME280_temperature;BME280_humidity;BME280_pressure;Samples;Min_cycle;Max_cycle;Signal;HPM_P1;HPM_P2
2023/11/07 00:01:12;;;;;;;10.57;7.33;;;;;;;;;;10466397;28;20412;-79
2023/11/07 00:06:14;;;;;;;9.90;7.30;;;;;;;;;;10468123;28;20401;-79
2023/11/07 00:11:18;;;;;;;10.43;7.35;;;;;;;;;;10462543;28;20893;-79
2023/11/07 00:16:20;;;;;;;9.73;6.93;;;;;;;;;;10464612;28;20461;-79
2023/11/07 00:21:23;;;;;;;9.93;7.07;;;;;;;;;;10463169;28;20993;-79
2023/11/07 00:26:27;;;;;;;11.93;7.17;;;;;;;;;;10460654;28;20500;-78
2023/11/07 00:31:29;;;;;;;11.57;7.32;;;;;;;;;;10460701;28;20504;-79
2023/11/07 00:36:32;;;;;;;12.43;7.72;;;;;;;;;;10459455;28;20457;-79
2023/11/07 00:41:35;;;;;;;12.02;8.23;;;;;;;;;;10464145;28;20438;-79
2023/11/07 00:46:38;;;;;;;13.18;8.70;;;;;;;;;;10463556;28;20477;-79
2023/11/07 00:51:40;;;;;;;11.40;8.38;;;;;;;;;;10449090;28;20636;-79
2023/11/07 00:56:44;;;;;;;12.52;8.27;;;;;;;;;;10466066;28;20930;-79
2023/11/07 01:01:46;;;;;;;12.38;8.38;;;;;;;;;;10480744;28;20818;-79
2023/11/07 01:06:48;;;;;;;12.80;8.40;;;;;;;;;;10470115;28;20447;-79
2023/11/07 01:11:52;;;;;;;12.80;8.80;;;;;;;;;;10472258;28;21128;-78
2023/11/07 01:16:54;;;;;;;12.57;8.55;;;;;;;;;;10448393;28;20508;-79
2023/11/07 01:21:57;;;;;;;10.93;7.78;;;;;;;;;;10452896;28;20437;-79
2023/11/07 01:27:00;;;;;;;10.02;7.80;;;;;;;;;;10465380;28;20832;-79
2023/11/07 01:32:03;;;;;;;11.52;8.27;;;;;;;;;;10461892;28;20939;-79
2023/11/07 01:37:05;;;;;;;12.15;8.20;;;;;;;;;;10470305;28;20497;-78
2023/11/07 01:42:09;;;;;;;11.57;7.63;;;;;;;;;;10463727;28;20497;-79
2023/11/07 01:47:11;;;;;;;11.73;7.57;;;;;;;;;;10458034;28;20470;-79
2023/11/07 01:52:17;;;;;;;10.82;7.65;;;;;;;;;;10469724;28;20878;-79
2023/11/07 01:57:21;;;;;;;11.40;8.05;;;;;;;;;;10474800;28;20453;-78
2023/11/07 02:02:24;;;;;;;12.75;8.50;;;;;;;;;;10467523;28;20838;-79
2023/11/07 02:07:26;;;;;;;10.52;7.90;;;;;;;;;;10447595;28;20449;-78
2023/11/07 02:12:30;;;;;;;14.00;7.60;;;;;;;;;;10466665;28;20519;-78
2023/11/07 02:17:32;;;;;;;10.93;9.35;;;;;;;;;;10461436;28;20455;-78
2023/11/07 02:22:35;;;;;;;13.32;8.27;;;;;;;;;;10460408;28;20507;-78
2023/11/07 02:27:38;;;;;;;12.55;7.63;;;;;;;;;;10457742;28;20913;-79
2023/11/07 02:32:41;;;;;;;12.80;7.73;;;;;;;;;;10471295;28;20878;-79
2023/11/07 02:37:48;;;;;;;11.18;7.45;;;;;;;;;;10458219;28;20447;-79
2023/11/07 02:42:51;;;;;;;11.57;7.93;;;;;;;;;;10474128;28;20455;-79
2023/11/07 02:47:54;;;;;;;12.90;8.15;;;;;;;;;;10471467;28;20801;-78
2023/11/07 02:52:56;;;;;;;11.50;7.93;;;;;;;;;;10474866;28;20406;-79
2023/11/07 02:58:00;;;;;;;11.70;7.88;;;;;;;;;;10466509;28;21154;-79
2023/11/07 03:03:03;;;;;;;10.00;7.23;;;;;;;;;;10467062;28;20903;-78
2023/11/07 03:08:06;;;;;;;11.85;7.15;;;;;;;;;;10473984;28;20402;-79
2023/11/07 03:13:10;;;;;;;10.13;7.00;;;;;;;;;;10463113;28;20949;-79
2023/11/07 03:18:12;;;;;;;10.45;6.68;;;;;;;;;;10446894;28;20961;-79
2023/11/07 03:23:14;;;;;;;10.00;6.32;;;;;;;;;;10441898;28;20526;-78
2023/11/07 03:28:20;;;;;;;8.60;6.25;;;;;;;;;;10446094;28;20522;-79
2023/11/07 03:33:22;;;;;;;8.43;5.57;;;;;;;;;;10450255;28;20450;-78
2023/11/07 03:38:24;;;;;;;10.02;6.15;;;;;;;;;;10447899;28;20455;-78
2023/11/07 03:43:28;;;;;;;8.63;6.10;;;;;;;;;;10445743;28;20535;-79
2023/11/07 03:48:30;;;;;;;8.27;5.47;;;;;;;;;;10447723;28;20449;-78
2023/11/07 03:53:32;;;;;;;8.87;5.77;;;;;;;;;;10457301;28;20477;-79
2023/11/07 03:58:36;;;;;;;6.67;5.33;;;;;;;;;;10452206;28;20864;-78
2023/11/07 04:03:38;;;;;;;8.23;5.25;;;;;;;;;;10441041;28;21041;-78
2023/11/07 04:08:41;;;;;;;12.15;6.15;;;;;;;;;;10457963;28;20438;-79
2023/11/07 04:13:44;;;;;;;8.05;5.55;;;;;;;;;;10449317;28;20509;-79
2023/11/07 04:18:47;;;;;;;9.10;6.13;;;;;;;;;;10473045;28;20500;-79
2023/11/07 04:23:49;;;;;;;7.45;5.57;;;;;;;;;;10460997;28;20501;-79
2023/11/07 04:28:53;;;;;;;8.05;5.68;;;;;;;;;;10461477;28;21001;-79
2023/11/07 04:33:56;;;;;;;6.53;4.78;;;;;;;;;;10460497;28;20443;-78
2023/11/07 04:38:59;;;;;;;4.72;4.13;;;;;;;;;;10458344;28;20514;-78
2023/11/07 04:44:03;;;;;;;6.47;4.10;;;;;;;;;;10460233;28;20520;-78
2023/11/07 04:49:07;;;;;;;6.55;3.90;;;;;;;;;;10456213;28;20859;-78
2023/11/07 04:54:09;;;;;;;5.75;3.92;;;;;;;;;;10455945;28;21247;-79
2023/11/07 04:59:13;;;;;;;5.78;3.80;;;;;;;;;;10455353;28;21026;-78
2023/11/07 05:04:15;;;;;;;5.70;4.15;;;;;;;;;;10456668;28;20872;-79
2023/11/07 05:09:18;;;;;;;5.32;3.78;;;;;;;;;;10450128;28;20485;-79
2023/11/07 05:14:21;;;;;;;6.57;4.32;;;;;;;;;;10451708;28;20444;-79
2023/11/07 05:19:24;;;;;;;4.87;3.50;;;;;;;;;;10444512;28;20501;-78
2023/11/07 05:24:26;;;;;;;5.83;3.63;;;;;;;;;;10441189;28;20516;-79
2023/11/07 05:29:30;;;;;;;4.70;3.45;;;;;;;;;;10441623;28;20915;-78
2023/11/07 05:34:32;;;;;;;5.25;3.90;;;;;;;;;;10456787;28;21505;-79
2023/11/07 05:39:34;;;;;;;5.97;3.90;;;;;;;;;;10454448;28;20984;-78
2023/11/07 05:44:38;;;;;;;5.18;3.53;;;;;;;;;;10452042;28;20821;-78
2023/11/07 05:49:40;;;;;;;5.03;3.53;;;;;;;;;;10453413;28;20478;-78
2023/11/07 05:54:43;;;;;;;7.93;4.30;;;;;;;;;;10452789;28;20451;-79
2023/11/07 05:59:46;;;;;;;6.88;4.30;;;;;;;;;;10446129;28;20458;-78
2023/11/07 06:04:49;;;;;;;7.13;4.80;;;;;;;;;;10451468;28;20531;-77
2023/11/07 06:09:51;;;;;;;9.27;5.68;;;;;;;;;;10457918;28;20427;-78
2023/11/07 06:14:55;;;;;;;7.10;4.72;;;;;;;;;;10448595;28;20434;-78
2023/11/07 06:19:58;;;;;;;7.65;4.47;;;;;;;;;;10451478;28;20464;-80
2023/11/07 06:25:00;;;;;;;8.05;4.55;;;;;;;;;;10451987;28;20517;-78
2023/11/07 06:30:06;;;;;;;10.05;5.40;;;;;;;;;;10444316;28;20449;-78
2023/11/07 06:35:10;;;;;;;10.07;5.80;;;;;;;;;;10447091;28;20920;-80
2023/11/07 06:40:14;;;;;;;7.72;5.60;;;;;;;;;;10475747;28;21002;-79
2023/11/07 06:45:18;;;;;;;8.80;5.80;;;;;;;;;;10462267;28;20886;-80
2023/11/07 06:50:20;;;;;;;10.27;6.63;;;;;;;;;;10454789;28;20473;-79
2023/11/07 06:55:24;;;;;;;11.80;7.25;;;;;;;;;;10446900;28;20811;-78
2023/11/07 07:00:29;;;;;;;10.70;7.10;;;;;;;;;;10464927;28;20443;-81
2023/11/07 07:05:32;;;;;;;11.80;6.20;;;;;;;;;;10447187;28;20824;-78
2023/11/07 07:10:34;;;;;;;13.63;6.60;;;;;;;;;;10460390;28;20483;-79
2023/11/07 07:15:41;;;;;;;9.05;6.25;;;;;;;;;;10463276;28;20897;-81
2023/11/07 07:20:45;;;;;;;9.30;5.72;;;;;;;;;;10478222;28;20399;-79
2023/11/07 07:25:48;;;;;;;13.90;6.93;;;;;;;;;;10473531;28;20508;-79
2023/11/07 07:30:51;;;;;;;9.95;5.32;;;;;;;;;;10483975;28;20410;-79
2023/11/07 07:36:02;;;;;;;9.50;4.30;;;;;;;;;;10482796;28;20426;-78
2023/11/07 07:41:05;;;;;;;5.75;4.32;;;;;;;;;;10476855;28;20403;-79
2023/11/07 07:46:10;;;;;;;8.13;4.78;;;;;;;;;;10470005;28;20501;-79
2023/11/07 07:51:13;;;;;;;9.15;5.00;;;;;;;;;;10466633;28;21086;-78
2023/11/07 07:56:15;;;;;;;9.13;5.22;;;;;;;;;;10469179;28;20425;-79
2023/11/07 08:01:19;;;;;;;7.22;4.70;;;;;;;;;;10470656;28;20412;-79
2023/11/07 08:06:22;;;;;;;7.50;4.80;;;;;;;;;;10480844;28;20963;-79
2023/11/07 08:11:25;;;;;;;7.72;5.07;;;;;;;;;;10477181;28;20407;-79
2023/11/07 08:16:28;;;;;;;6.10;5.00;;;;;;;;;;10477058;28;20959;-80
2023/11/07 08:21:31;;;;;;;6.73;4.50;;;;;;;;;;10474377;28;20442;-79
2023/11/07 08:26:34;;;;;;;8.23;4.75;;;;;;;;;;10474558;28;20410;-79
2023/11/07 08:31:38;;;;;;;6.65;4.75;;;;;;;;;;10475577;28;20464;-79
2023/11/07 08:36:41;;;;;;;7.38;4.90;;;;;;;;;;10476515;28;21037;-79
2023/11/07 08:41:44;;;;;;;7.05;5.07;;;;;;;;;;10479026;28;20501;-78
2023/11/07 08:46:47;;;;;;;7.95;4.70;;;;;;;;;;10482913;28;20489;-79
2023/11/07 08:51:50;;;;;;;6.55;4.10;;;;;;;;;;10483644;28;20501;-79
2023/11/07 08:56:52;;;;;;;6.53;4.22;;;;;;;;;;10474569;28;20459;-79
2023/11/07 09:01:56;;;;;;;5.32;3.80;;;;;;;;;;10473154;28;20428;-79
2023/11/07 09:06:58;;;;;;;6.20;3.88;;;;;;;;;;10485932;28;20410;-79
2023/11/07 09:12:01;;;;;;;5.85;4.07;;;;;;;;;;10487448;28;20406;-79
2023/11/07 09:17:05;;;;;;;6.65;4.18;;;;;;;;;;10481322;28;20919;-79
2023/11/07 09:22:09;;;;;;;5.90;3.42;;;;;;;;;;10477629;28;20413;-79
2023/11/07 09:27:11;;;;;;;3.72;2.08;;;;;;;;;;10476530;28;20441;-79
2023/11/07 09:32:15;;;;;;;3.30;1.60;;;;;;;;;;10479743;28;20408;-79
2023/11/07 09:37:17;;;;;;;2.08;1.88;;;;;;;;;;10471632;28;20503;-79
2023/11/07 09:42:20;;;;;;;3.50;1.50;;;;;;;;;;10476278;28;20442;-79
2023/11/07 09:47:25;;;;;;;3.80;1.38;;;;;;;;;;10473839;28;20826;-79
2023/11/07 09:52:27;;;;;;;4.13;1.30;;;;;;;;;;10473268;28;20392;-79
2023/11/07 09:57:31;;;;;;;2.08;1.27;;;;;;;;;;10472632;28;20512;-79
2023/11/07 10:02:35;;;;;;;3.05;1.60;;;;;;;;;;10475180;28;20459;-79
2023/11/07 10:07:38;;;;;;;5.00;1.98;;;;;;;;;;10479715;28;20432;-80
2023/11/07 10:12:43;;;;;;;3.58;1.88;;;;;;;;;;10473963;28;20791;-80
2023/11/07 10:17:59;;;;;;;5.82;1.60;;;;;;;;;;10477307;28;20477;-79
2023/11/07 10:23:02;;;;;;;3.90;1.92;;;;;;;;;;10492104;22;20796;-88
2023/11/07 10:28:06;;;;;;;4.73;1.70;;;;;;;;;;10485825;28;20421;-88
2023/11/07 10:33:11;;;;;;;2.72;1.40;;;;;;;;;;10482382;28;20390;-88
2023/11/07 10:38:14;;;;;;;2.95;1.17;;;;;;;;;;10486864;28;20448;-88
2023/11/07 10:43:35;;;;;;;3.63;1.30;;;;;;;;;;10491254;28;21483;-88
2023/11/07 10:48:40;;;;;;;4.15;1.30;;;;;;;;;;10490312;28;20406;-87
2023/11/07 10:53:43;;;;;;;1.97;1.27;;;;;;;;;;10485773;28;20406;-87
2023/11/07 10:58:51;;;;;;;1.25;0.95;;;;;;;;;;10479616;28;20483;-88
2023/11/07 11:03:55;;;;;;;6.10;1.43;;;;;;;;;;10486717;28;20455;-87
2023/11/07 11:09:01;;;;;;;2.47;1.00;;;;;;;;;;10473304;28;20469;-88
2023/11/07 11:14:04;;;;;;;3.30;1.70;;;;;;;;;;10480315;28;20468;-87
2023/11/07 11:19:24;;;;;;;5.27;2.53;;;;;;;;;;10488777;28;20415;-87
2023/11/07 11:24:41;;;;;;;1.30;1.00;;;;;;;;;;10492361;28;20963;-88
2023/11/07 11:29:46;;;;;;;2.60;1.20;;;;;;;;;;10481317;28;20607;-88
2023/11/07 11:34:50;;;;;;;2.40;0.90;;;;;;;;;;10479186;28;20398;-88
2023/11/07 11:39:52;;;;;;;2.63;1.10;;;;;;;;;;10487574;28;20480;-88
2023/11/07 11:45:26;;;;;;;4.05;1.05;;;;;;;;;;10481897;28;20875;-88
2023/11/07 11:50:29;;;;;;;2.85;0.93;;;;;;;;;;10484805;28;20463;-88
2023/11/07 11:56:02;;;;;;;3.40;1.10;;;;;;;;;;10491336;28;20398;-88
2023/11/07 12:01:04;;;;;;;4.43;1.15;;;;;;;;;;10480963;28;20430;-88
2023/11/07 12:06:08;;;;;;;3.10;1.00;;;;;;;;;;10481973;28;20408;-88
2023/11/07 12:11:11;;;;;;;2.73;1.60;;;;;;;;;;10486733;28;20412;-88
2023/11/07 12:16:19;;;;;;;2.92;1.10;;;;;;;;;;10492724;28;20404;-88
2023/11/07 12:21:24;;;;;;;2.42;1.13;;;;;;;;;;10487108;28;20427;-87
2023/11/07 12:26:40;;;;;;;2.92;1.30;;;;;;;;;;10482880;28;20409;-86
2023/11/07 12:31:42;;;;;;;4.60;1.50;;;;;;;;;;10488823;28;20447;-87
2023/11/07 12:36:46;;;;;;;2.07;1.20;;;;;;;;;;10483427;28;20407;-87
2023/11/07 12:41:48;;;;;;;5.47;2.17;;;;;;;;;;10489133;28;20417;-87
2023/11/07 12:46:51;;;;;;;13.67;8.97;;;;;;;;;;10482746;28;20624;-87
2023/11/07 12:51:57;;;;;;;4.97;2.60;;;;;;;;;;10474484;28;20441;-86
2023/11/07 12:56:59;;;;;;;7.83;3.83;;;;;;;;;;10476703;28;20464;-86
2023/11/07 13:02:03;;;;;;;5.95;2.63;;;;;;;;;;10482997;28;20448;-86
2023/11/07 13:07:06;;;;;;;5.60;2.67;;;;;;;;;;10480473;28;20402;-87
2023/11/07 13:12:09;;;;;;;5.40;1.88;;;;;;;;;;10479811;28;20399;-86
2023/11/07 13:17:12;;;;;;;7.22;3.67;;;;;;;;;;10485689;28;20408;-87
2023/11/07 13:22:18;;;;;;;12.43;6.78;;;;;;;;;;10475068;28;20416;-86
2023/11/07 13:27:20;;;;;;;5.50;2.20;;;;;;;;;;10478230;28;20408;-86
2023/11/07 13:32:24;;;;;;;5.70;2.10;;;;;;;;;;10466656;28;20396;-84
2023/11/07 13:37:28;;;;;;;5.32;1.63;;;;;;;;;;10469707;28;20411;-84
2023/11/07 13:42:30;;;;;;;7.00;1.70;;;;;;;;;;10474985;28;20396;-85
2023/11/07 13:47:33;;;;;;;3.60;1.40;;;;;;;;;;10475474;28;20406;-85
2023/11/07 13:52:37;;;;;;;74.22;9.27;;;;;;;;;;10468795;28;20411;-85
2023/11/07 13:57:40;;;;;;;2.97;1.53;;;;;;;;;;10465268;28;20406;-86
2023/11/07 14:02:43;;;;;;;5.22;2.17;;;;;;;;;;10469529;28;20453;-86
2023/11/07 14:07:46;;;;;;;5.13;2.07;;;;;;;;;;10468395;28;20895;-86
2023/11/07 14:12:52;;;;;;;4.60;2.30;;;;;;;;;;10468630;28;20408;-85
2023/11/07 14:17:54;;;;;;;4.22;1.60;;;;;;;;;;10465680;28;20503;-84
2023/11/07 14:22:58;;;;;;;5.38;1.83;;;;;;;;;;10468847;28;20460;-86
2023/11/07 14:28:04;;;;;;;4.03;1.80;;;;;;;;;;10469684;28;20981;-86
2023/11/07 14:33:08;;;;;;;5.35;1.90;;;;;;;;;;10467350;28;20396;-85
2023/11/07 14:38:11;;;;;;;4.75;2.05;;;;;;;;;;10474079;28;20462;-86
2023/11/07 14:43:14;;;;;;;5.23;1.73;;;;;;;;;;10467453;28;20438;-85
2023/11/07 14:48:16;;;;;;;3.53;1.60;;;;;;;;;;10468189;28;20434;-86
2023/11/07 14:53:22;;;;;;;4.03;1.83;;;;;;;;;;10469844;28;20469;-86
2023/11/07 14:58:24;;;;;;;7.78;3.50;;;;;;;;;;10475303;28;20457;-86
2023/11/07 15:03:26;;;;;;;7.43;2.90;;;;;;;;;;10474598;28;20410;-86
2023/11/07 15:08:30;;;;;;;6.07;2.45;;;;;;;;;;10470062;28;20433;-85
2023/11/07 15:13:32;;;;;;;6.35;2.60;;;;;;;;;;10477004;28;20507;-86
2023/11/07 15:18:34;;;;;;;6.45;2.60;;;;;;;;;;10477520;28;20455;-86
2023/11/07 15:23:38;;;;;;;7.50;2.38;;;;;;;;;;10482230;28;20432;-86
2023/11/07 15:28:40;;;;;;;7.78;2.70;;;;;;;;;;10479290;28;20408;-86
2023/11/07 15:33:43;;;;;;;11.55;4.13;;;;;;;;;;10472312;28;20398;-86
2023/11/07 15:38:47;;;;;;;7.70;3.20;;;;;;;;;;10460591;28;20411;-87
2023/11/07 15:43:51;;;;;;;11.32;3.67;;;;;;;;;;10485868;28;20875;-86
2023/11/07 15:48:53;;;;;;;18.38;6.80;;;;;;;;;;10484998;28;20483;-86
2023/11/07 15:53:57;;;;;;;10.05;3.90;;;;;;;;;;10490827;28;20404;-86
2023/11/07 15:59:00;;;;;;;12.15;4.80;;;;;;;;;;10471068;28;20570;-87
2023/11/07 16:04:03;;;;;;;10.90;5.10;;;;;;;;;;10473342;28;20403;-87
2023/11/07 16:09:09;;;;;;;6.43;3.60;;;;;;;;;;10470197;28;20431;-88
2023/11/07 16:14:12;;;;;;;5.15;3.08;;;;;;;;;;10470506;28;20428;-86
2023/11/07 16:19:14;;;;;;;13.20;6.53;;;;;;;;;;10476355;28;20456;-86
2023/11/07 16:24:18;;;;;;;10.32;3.70;;;;;;;;;;10475599;28;20401;-87
2023/11/07 16:29:21;;;;;;;5.20;2.17;;;;;;;;;;10479199;28;20453;-87
2023/11/07 16:34:24;;;;;;;4.68;2.63;;;;;;;;;;10468836;28;20403;-86
2023/11/07 16:39:27;;;;;;;6.68;4.10;;;;;;;;;;10473178;28;20412;-86
2023/11/07 16:44:30;;;;;;;12.18;5.97;;;;;;;;;;10475810;28;20404;-87
2023/11/07 16:49:33;;;;;;;24.23;12.75;;;;;;;;;;10480837;28;20400;-87
2023/11/07 16:54:37;;;;;;;16.87;8.97;;;;;;;;;;10473693;28;20396;-87
2023/11/07 16:59:41;;;;;;;12.15;5.32;;;;;;;;;;10482518;28;20495;-85
2023/11/07 17:04:44;;;;;;;10.67;6.57;;;;;;;;;;10479615;28;20404;-87
2023/11/07 17:09:48;;;;;;;8.33;4.53;;;;;;;;;;10474488;28;20438;-85
2023/11/07 17:14:51;;;;;;;9.70;5.00;;;;;;;;;;10481422;28;20515;-87
2023/11/07 17:19:53;;;;;;;9.25;5.57;;;;;;;;;;10475989;28;20483;-87
2023/11/07 17:24:57;;;;;;;8.25;6.13;;;;;;;;;;10471996;28;20807;-86
2023/11/07 17:29:59;;;;;;;10.33;6.23;;;;;;;;;;10471337;28;20396;-88
2023/11/07 17:35:03;;;;;;;15.57;8.93;;;;;;;;;;10474467;28;20436;-85
2023/11/07 17:40:09;;;;;;;15.95;9.68;;;;;;;;;;10477016;28;20518;-86
2023/11/07 17:45:13;;;;;;;8.85;6.22;;;;;;;;;;10468495;28;20408;-85
2023/11/07 17:50:15;;;;;;;9.63;6.10;;;;;;;;;;10477889;28;20406;-86
2023/11/07 17:55:20;;;;;;;9.13;6.05;;;;;;;;;;10471167;28;20408;-85
2023/11/07 18:00:24;;;;;;;8.93;6.32;;;;;;;;;;10455755;28;20420;-86
2023/11/07 18:05:27;;;;;;;10.45;6.72;;;;;;;;;;10470789;28;20411;-85
2023/11/07 18:10:31;;;;;;;13.57;8.13;;;;;;;;;;10487331;28;20765;-88
2023/11/07 18:15:34;;;;;;;13.20;7.47;;;;;;;;;;10479250;28;20886;-86
2023/11/07 18:20:36;;;;;;;12.10;8.10;;;;;;;;;;10488651;28;20499;-86
2023/11/07 18:25:40;;;;;;;11.70;7.63;;;;;;;;;;10466347;28;20410;-86
2023/11/07 18:30:43;;;;;;;10.97;7.57;;;;;;;;;;10474307;28;20560;-86
2023/11/07 18:35:45;;;;;;;16.23;8.98;;;;;;;;;;10478185;28;20406;-84
2023/11/07 18:40:49;;;;;;;17.50;9.43;;;;;;;;;;10476115;28;20418;-83
2023/11/07 18:45:51;;;;;;;15.50;10.48;;;;;;;;;;10473772;28;20420;-85
2023/11/07 18:50:53;;;;;;;17.77;10.95;;;;;;;;;;10473388;28;20400;-83
2023/11/07 18:55:57;;;;;;;15.52;10.63;;;;;;;;;;10473279;28;20410;-83
2023/11/07 19:00:59;;;;;;;27.15;11.30;;;;;;;;;;10470730;28;20838;-83
2023/11/07 19:06:01;;;;;;;13.38;9.38;;;;;;;;;;10477704;28;20966;-85
2023/11/07 19:11:07;;;;;;;15.55;9.70;;;;;;;;;;10474137;28;20408;-85
2023/11/07 19:16:11;;;;;;;15.18;11.70;;;;;;;;;;10477427;28;20404;-85
2023/11/07 19:21:13;;;;;;;17.40;11.17;;;;;;;;;;10488857;28;20848;-88
2023/11/07 19:26:19;;;;;;;19.50;12.80;;;;;;;;;;10494817;28;20410;-87
2023/11/07 19:31:22;;;;;;;25.02;14.77;;;;;;;;;;10495170;28;20461;-85
2023/11/07 19:36:24;;;;;;;17.52;12.18;;;;;;;;;;10489632;28;20762;-87
2023/11/07 19:41:28;;;;;;;17.50;11.90;;;;;;;;;;10492842;28;20452;-85
2023/11/07 19:46:30;;;;;;;19.47;11.67;;;;;;;;;;10500117;28;20762;-85
2023/11/07 19:51:33;;;;;;;16.70;10.20;;;;;;;;;;10480035;28;20945;-86
2023/11/07 19:56:39;;;;;;;25.42;15.05;;;;;;;;;;10495096;28;20814;-87
2023/11/07 20:01:41;;;;;;;20.27;13.18;;;;;;;;;;10487279;28;20423;-86
2023/11/07 20:06:43;;;;;;;14.88;9.55;;;;;;;;;;10480101;28;20438;-85
2023/11/07 20:11:48;;;;;;;15.05;9.73;;;;;;;;;;10477055;28;20400;-87
2023/11/07 20:16:54;;;;;;;16.57;10.70;;;;;;;;;;10473260;28;20408;-87
2023/11/07 20:21:57;;;;;;;15.65;10.80;;;;;;;;;;10484844;28;20410;-87
2023/11/07 20:27:01;;;;;;;13.43;10.20;;;;;;;;;;10475241;28;20410;-88
2023/11/07 20:32:04;;;;;;;14.00;10.33;;;;;;;;;;10479721;28;20404;-87
2023/11/07 20:37:06;;;;;;;15.88;9.77;;;;;;;;;;10468300;28;20434;-86
2023/11/07 20:42:11;;;;;;;13.65;10.05;;;;;;;;;;10476849;28;22050;-86
2023/11/07 20:47:30;;;;;;;13.32;10.50;;;;;;;;;;10475500;28;20461;-89
2023/11/07 20:52:33;;;;;;;14.65;10.43;;;;;;;;;;10483255;28;20410;-89
2023/11/07 20:57:37;;;;;;;17.23;11.87;;;;;;;;;;10484499;28;20406;-91
2023/11/07 21:02:39;;;;;;;16.17;11.82;;;;;;;;;;10480599;28;20975;-90
2023/11/07 21:07:42;;;;;;;16.95;11.18;;;;;;;;;;10492776;28;20488;-90
2023/11/07 21:12:45;;;;;;;17.25;11.50;;;;;;;;;;10505162;28;21079;-90
2023/11/07 21:17:48;;;;;;;15.93;11.37;;;;;;;;;;10497659;28;20410;-89
2023/11/07 21:22:50;;;;;;;19.87;13.60;;;;;;;;;;10489688;28;20425;-87
2023/11/07 21:27:55;;;;;;;19.03;12.97;;;;;;;;;;10480182;28;20889;-88
2023/11/07 21:33:02;;;;;;;18.13;11.90;;;;;;;;;;10484748;28;20418;-88
2023/11/07 21:38:05;;;;;;;15.63;11.30;;;;;;;;;;10480324;28;20414;-87
2023/11/07 21:43:10;;;;;;;14.85;10.68;;;;;;;;;;10469592;28;20422;-87
2023/11/07 21:48:12;;;;;;;18.92;12.63;;;;;;;;;;10460762;28;20461;-88
2023/11/07 21:53:14;;;;;;;18.55;12.40;;;;;;;;;;10480854;28;20470;-88
2023/11/07 21:58:18;;;;;;;17.67;11.75;;;;;;;;;;10468536;28;20642;-88
2023/11/07 22:03:20;;;;;;;17.47;11.23;;;;;;;;;;10455714;28;20415;-88
2023/11/07 22:08:23;;;;;;;14.50;10.37;;;;;;;;;;10492793;28;20413;-87
2023/11/07 22:13:26;;;;;;;18.20;11.57;;;;;;;;;;10491086;28;20452;-88
2023/11/07 22:18:29;;;;;;;19.02;13.00;;;;;;;;;;10480204;28;20414;-87
2023/11/07 22:23:32;;;;;;;19.13;12.50;;;;;;;;;;10490669;28;20426;-87
2023/11/07 22:28:36;;;;;;;17.90;12.90;;;;;;;;;;10489290;28;20410;-88
2023/11/07 22:33:38;;;;;;;15.95;10.80;;;;;;;;;;10492372;28;20402;-88
2023/11/07 22:38:41;;;;;;;16.80;11.55;;;;;;;;;;10490178;28;20485;-88
2023/11/07 22:43:44;;;;;;;17.02;11.50;;;;;;;;;;10470553;28;20862;-89
2023/11/07 22:48:50;;;;;;;14.38;10.57;;;;;;;;;;10478761;28;20398;-88
2023/11/07 22:53:53;;;;;;;15.68;10.32;;;;;;;;;;10467311;28;20404;-88
2023/11/07 22:58:57;;;;;;;13.82;10.18;;;;;;;;;;10467624;28;20478;-88
2023/11/07 23:03:59;;;;;;;16.43;10.80;;;;;;;;;;10474289;28;20484;-89
2023/11/07 23:09:02;;;;;;;13.18;9.90;;;;;;;;;;10469295;28;20408;-89
2023/11/07 23:14:06;;;;;;;18.03;10.43;;;;;;;;;;10476972;28;20394;-87
2023/11/07 23:19:08;;;;;;;14.90;9.82;;;;;;;;;;10487619;28;20425;-89
2023/11/07 23:24:10;;;;;;;16.90;10.15;;;;;;;;;;10477567;28;20431;-88
2023/11/07 23:29:14;;;;;;;12.55;9.25;;;;;;;;;;10475161;28;20412;-89
2023/11/07 23:34:16;;;;;;;15.80;10.43;;;;;;;;;;10481420;28;20420;-90
2023/11/07 23:39:19;;;;;;;13.45;9.45;;;;;;;;;;10475698;28;20438;-88
2023/11/07 23:44:24;;;;;;;17.27;10.35;;;;;;;;;;10477250;28;20424;-88
2023/11/07 23:49:27;;;;;;;16.40;10.55;;;;;;;;;;10477332;28;20937;-89
2023/11/07 23:54:30;;;;;;;13.53;9.03;;;;;;;;;;10478985;28;20409;-88
2023/11/07 23:59:33;;;;;;;13.27;10.23;;;;;;;;;;10491132;28;20878;-88
